createdAt,value
2022-11-18T00:00:50.924Z,9.93
2022-11-18T00:03:17.554Z,10.60
2022-11-18T00:05:44.138Z,11.47
2022-11-18T00:08:10.780Z,9.90
2022-11-18T00:10:38.484Z,9.87
2022-11-18T00:13:26.302Z,9.97
2022-11-18T00:16:00.149Z,9.60
2022-11-18T00:18:27.169Z,10.03
2022-11-18T00:20:53.885Z,10.23
2022-11-18T00:23:20.585Z,10.93
2022-11-18T00:25:48.772Z,11.23
2022-11-18T00:28:15.417Z,10.73
2022-11-18T00:30:41.988Z,9.60
2022-11-18T00:33:08.624Z,10.03
2022-11-18T00:35:35.222Z,9.73
2022-11-18T00:38:01.856Z,9.90
2022-11-18T00:40:28.396Z,10.57
2022-11-18T00:42:56.929Z,10.70
2022-11-18T00:45:23.551Z,9.47
2022-11-18T00:47:50.124Z,10.17
2022-11-18T00:50:16.807Z,10.83
2022-11-18T00:52:43.640Z,10.03
2022-11-18T00:55:10.266Z,11.33
2022-11-18T00:57:37.024Z,10.30
2022-11-18T01:00:04.128Z,10.77
2022-11-18T01:02:30.774Z,10.40
2022-11-18T01:04:57.346Z,10.67
2022-11-18T01:07:24.155Z,10.83
2022-11-18T01:09:50.913Z,10.60
2022-11-18T01:12:36.147Z,10.67
2022-11-18T01:15:02.695Z,11.93
2022-11-18T01:17:32.397Z,10.13
2022-11-18T01:19:59.048Z,12.90
2022-11-18T01:22:25.803Z,12.20
2022-11-18T01:24:52.608Z,11.60
2022-11-18T01:27:19.094Z,13.40
2022-11-18T01:29:45.745Z,12.00
2022-11-18T01:32:27.532Z,12.87
2022-11-18T01:34:54.184Z,12.37
2022-11-18T01:37:20.784Z,13.60
2022-11-18T01:39:47.368Z,14.03
2022-11-18T01:42:14.612Z,14.17
2022-11-18T01:45:10.981Z,11.80
2022-11-18T01:47:41.800Z,11.87
2022-11-18T01:50:08.488Z,10.60
2022-11-18T01:52:35.043Z,11.70
2022-11-18T01:55:05.263Z,12.07
2022-11-18T01:57:32.906Z,10.50
2022-11-18T01:59:59.729Z,10.97
2022-11-18T02:02:26.325Z,12.20
2022-11-18T02:04:52.862Z,10.03
2022-11-18T02:07:21.646Z,10.63
2022-11-18T02:09:48.334Z,10.37
2022-11-18T02:12:14.945Z,10.83
2022-11-18T02:14:42.421Z,11.03
2022-11-18T02:17:27.651Z,9.57
2022-11-18T02:20:06.284Z,11.83
2022-11-18T02:22:48.784Z,12.03
2022-11-18T02:25:24.462Z,11.37
2022-11-18T02:28:06.484Z,10.83
2022-11-18T02:30:35.184Z,10.63
2022-11-18T02:33:20.206Z,10.83
2022-11-18T02:35:47.391Z,9.70
2022-11-18T02:38:15.964Z,11.43
2022-11-18T02:40:48.114Z,10.50
2022-11-18T02:43:28.827Z,10.60
2022-11-18T02:45:56.577Z,10.77
2022-11-18T02:48:23.638Z,10.00
2022-11-18T02:50:50.456Z,8.97
2022-11-18T02:53:18.605Z,9.20
2022-11-18T02:55:45.231Z,8.47
2022-11-18T02:58:11.834Z,9.43
2022-11-18T03:00:38.451Z,9.20
2022-11-18T03:03:24.092Z,9.43
2022-11-18T03:06:14.105Z,9.93
2022-11-18T03:08:42.865Z,7.93
2022-11-18T03:11:22.900Z,7.93
2022-11-18T03:13:52.578Z,8.33
2022-11-18T03:16:20.989Z,8.77
2022-11-18T03:18:51.996Z,8.27
2022-11-18T03:21:21.120Z,8.70
2022-11-18T03:23:50.077Z,8.83
2022-11-18T03:26:27.134Z,8.77
2022-11-18T03:28:56.124Z,7.87
2022-11-18T03:31:29.852Z,8.60
2022-11-18T03:34:00.521Z,7.97
2022-11-18T03:36:27.627Z,8.90
2022-11-18T03:38:54.965Z,8.77
2022-11-18T03:41:21.804Z,9.23
2022-11-18T03:43:53.473Z,8.60
2022-11-18T03:46:22.551Z,8.63
2022-11-18T03:48:51.141Z,10.30
2022-11-18T03:51:19.049Z,8.50
2022-11-18T03:53:47.787Z,8.67
2022-11-18T03:56:17.770Z,8.97
2022-11-18T03:58:47.537Z,9.63
2022-11-18T04:01:19.773Z,8.87
2022-11-18T04:03:46.443Z,9.33
2022-11-18T04:06:18.747Z,8.73
2022-11-18T04:08:45.284Z,9.93
2022-11-18T04:11:34.112Z,8.67
2022-11-18T04:14:00.734Z,8.57
2022-11-18T04:16:27.316Z,8.10
2022-11-18T04:18:53.848Z,7.97
2022-11-18T04:21:20.457Z,7.63
2022-11-18T04:23:47.057Z,8.23
2022-11-18T04:26:13.659Z,8.40
2022-11-18T04:28:40.192Z,9.73
2022-11-18T04:31:06.887Z,9.40
2022-11-18T04:33:33.476Z,9.53
2022-11-18T04:36:00.215Z,10.07
2022-11-18T04:38:26.791Z,10.80
2022-11-18T04:40:53.951Z,10.30
2022-11-18T04:43:20.540Z,10.07
2022-11-18T04:45:47.168Z,11.53
2022-11-18T04:48:13.731Z,10.27
2022-11-18T04:50:40.246Z,10.83
2022-11-18T04:53:06.935Z,10.83
2022-11-18T04:55:35.727Z,10.93
2022-11-18T04:58:02.617Z,11.30
2022-11-18T05:00:29.151Z,11.70
2022-11-18T05:02:55.688Z,11.33
2022-11-18T05:05:22.282Z,11.70
2022-11-18T05:07:49.066Z,12.00
2022-11-18T05:10:15.915Z,9.30
2022-11-18T05:12:52.660Z,10.90
2022-11-18T05:15:19.998Z,9.40
2022-11-18T05:17:46.984Z,10.67
2022-11-18T05:20:13.893Z,10.40
2022-11-18T05:22:40.946Z,10.43
2022-11-18T05:25:13.244Z,10.37
2022-11-18T05:27:40.062Z,11.03
2022-11-18T05:30:08.571Z,11.13
2022-11-18T05:32:35.216Z,10.50
2022-11-18T05:35:02.115Z,10.60
2022-11-18T05:37:28.762Z,10.27
2022-11-18T05:39:55.376Z,10.50
2022-11-18T05:42:40.715Z,12.03
2022-11-18T05:45:09.820Z,12.23
2022-11-18T05:48:02.655Z,13.37
2022-11-18T05:50:29.367Z,12.93
2022-11-18T05:52:56.170Z,14.00
2022-11-18T05:55:22.903Z,13.77
2022-11-18T05:57:52.593Z,12.37
2022-11-18T06:00:22.340Z,12.10
2022-11-18T06:02:49.233Z,13.37
2022-11-18T06:08:07.950Z,12.97
2022-11-18T06:10:35.196Z,12.43
2022-11-18T06:13:47.874Z,13.27
2022-11-18T06:16:19.595Z,13.57
2022-11-18T06:18:46.393Z,13.70
2022-11-18T06:21:13.420Z,13.77
2022-11-18T06:26:24.816Z,14.03
2022-11-18T06:40:16.589Z,12.37
2022-11-18T06:43:01.845Z,11.93
2022-11-18T06:45:34.464Z,11.60
2022-11-18T06:48:01.252Z,13.07
2022-11-18T06:50:33.112Z,11.47
2022-11-18T06:53:00.375Z,12.20
2022-11-18T06:55:27.443Z,12.77
2022-11-18T06:58:03.769Z,13.00
2022-11-18T07:00:33.517Z,11.87
2022-11-18T07:03:02.485Z,13.03
2022-11-18T07:05:39.744Z,12.97
2022-11-18T07:08:06.715Z,15.10
2022-11-18T07:10:39.436Z,15.10
2022-11-18T07:13:08.648Z,15.00
2022-11-18T07:15:45.485Z,13.50
2022-11-18T07:18:23.297Z,14.40
2022-11-18T07:20:50.348Z,14.40
2022-11-18T07:23:20.171Z,12.43
2022-11-18T07:25:49.691Z,13.87
2022-11-18T07:28:16.924Z,11.70
2022-11-18T07:30:44.364Z,13.90
2022-11-18T07:33:11.021Z,12.50
2022-11-18T07:35:37.614Z,13.30
2022-11-18T07:38:04.117Z,13.63
2022-11-18T07:40:30.724Z,14.30
2022-11-18T07:42:57.262Z,13.30
2022-11-18T07:45:24.704Z,12.70
2022-11-18T07:47:57.305Z,12.37
2022-11-18T07:50:27.037Z,10.67
2022-11-18T07:52:57.139Z,12.00
2022-11-18T07:55:26.867Z,11.37
2022-11-18T07:57:56.468Z,11.37
2022-11-18T08:00:23.091Z,12.00
2022-11-18T08:02:50.234Z,10.80
2022-11-18T08:05:23.301Z,9.40
2022-11-18T08:07:58.961Z,9.97
2022-11-18T08:10:25.619Z,10.33
2022-11-18T08:12:52.234Z,11.73
2022-11-18T08:15:20.334Z,12.40
2022-11-18T08:17:46.950Z,11.90
2022-11-18T08:20:13.618Z,12.20
2022-11-18T08:22:42.450Z,13.33
2022-11-18T08:25:09.113Z,13.77
2022-11-18T08:27:35.813Z,13.90
2022-11-18T08:30:02.546Z,13.70
2022-11-18T08:32:30.547Z,12.63
2022-11-18T08:34:57.284Z,12.90
2022-11-18T08:37:24.822Z,13.60
2022-11-18T08:39:51.862Z,14.33
2022-11-18T08:42:24.353Z,12.73
2022-11-18T08:44:51.390Z,14.27
2022-11-18T08:47:18.216Z,12.53
2022-11-18T08:49:44.838Z,13.30
2022-11-18T08:52:11.514Z,12.77
2022-11-18T08:54:38.372Z,14.20
2022-11-18T08:57:05.091Z,14.57
2022-11-18T08:59:32.554Z,14.77
2022-11-18T09:01:59.288Z,14.70
2022-11-18T09:04:25.936Z,12.10
2022-11-18T09:06:52.658Z,14.47
2022-11-18T09:09:19.794Z,13.13
2022-11-18T09:11:46.670Z,13.97
2022-11-18T09:17:08.520Z,13.07
2022-11-18T09:19:52.316Z,14.13
2022-11-18T09:25:12.799Z,14.37
2022-11-18T09:27:39.608Z,15.13
2022-11-18T09:30:06.406Z,14.87
2022-11-18T09:32:33.400Z,15.57
2022-11-18T09:35:00.301Z,14.77
2022-11-18T09:37:27.034Z,14.53
2022-11-18T09:39:54.689Z,15.47
2022-11-18T09:42:29.179Z,15.00
2022-11-18T09:45:08.617Z,13.23
2022-11-18T09:47:38.637Z,13.70
2022-11-18T09:50:47.306Z,14.10
2022-11-18T09:53:11.917Z,13.83
2022-11-18T09:55:39.551Z,15.53
2022-11-18T09:58:06.204Z,15.97
2022-11-18T10:00:33.198Z,16.17
2022-11-18T10:03:05.073Z,16.53
2022-11-18T10:05:54.428Z,17.67
2022-11-18T10:08:36.153Z,18.13
2022-11-18T10:11:17.164Z,19.10
2022-11-18T10:13:53.688Z,17.67
2022-11-18T10:16:23.834Z,18.33
2022-11-18T10:19:00.228Z,18.90
2022-11-18T10:24:20.881Z,17.47
2022-11-18T10:26:47.960Z,17.47
2022-11-18T10:29:17.017Z,19.07
2022-11-18T10:31:59.629Z,17.67
2022-11-18T10:34:30.574Z,18.10
2022-11-18T10:36:58.406Z,18.83
2022-11-18T10:39:24.965Z,18.80
2022-11-18T10:41:56.634Z,18.47
2022-11-18T10:44:32.270Z,16.40
2022-11-18T10:47:22.229Z,17.77
2022-11-18T10:49:48.776Z,17.90
2022-11-18T10:52:15.302Z,16.17
2022-11-18T10:54:43.042Z,16.67
2022-11-18T10:57:16.111Z,16.67
2022-11-18T10:59:54.623Z,19.67
2022-11-18T11:02:23.528Z,17.83
2022-11-18T11:04:51.982Z,17.80
2022-11-18T11:07:27.443Z,19.73
2022-11-18T11:10:03.209Z,18.93
2022-11-18T11:12:31.570Z,18.10
2022-11-18T11:15:00.639Z,19.27
2022-11-18T11:17:27.229Z,20.20
2022-11-18T11:20:12.620Z,19.03
2022-11-18T11:22:39.210Z,19.67
2022-11-18T11:25:11.686Z,19.87
2022-11-18T11:30:24.954Z,20.87
2022-11-18T11:32:51.571Z,18.57
2022-11-18T11:35:36.979Z,20.60
2022-11-18T11:38:12.192Z,19.73
2022-11-18T11:40:48.042Z,20.57
2022-11-18T11:43:26.300Z,19.03
2022-11-18T11:45:58.847Z,18.57
2022-11-18T11:48:25.365Z,18.53
2022-11-18T11:51:04.283Z,18.20
2022-11-18T11:53:40.555Z,18.53
2022-11-18T11:56:25.829Z,17.03
2022-11-18T11:59:19.444Z,17.63
2022-11-18T12:01:52.363Z,17.97
2022-11-18T12:04:37.638Z,17.67
2022-11-18T12:07:04.326Z,18.40
2022-11-18T12:09:49.779Z,19.33
2022-11-18T12:12:36.443Z,18.33
2022-11-18T12:15:05.993Z,17.70
2022-11-18T12:17:36.769Z,18.30
2022-11-18T12:20:25.995Z,19.60
2022-11-18T12:23:12.194Z,16.80
2022-11-18T12:25:47.023Z,16.93
2022-11-18T12:28:34.982Z,17.00
2022-11-18T12:31:20.427Z,18.07
2022-11-18T12:33:46.912Z,19.83
2022-11-18T12:36:33.728Z,17.20
2022-11-18T12:39:20.912Z,17.50
2022-11-18T12:42:06.176Z,17.60
2022-11-18T12:44:32.718Z,19.37
2022-11-18T12:46:59.769Z,19.50
2022-11-18T12:49:26.387Z,17.90
2022-11-18T12:51:58.845Z,17.53
2022-11-18T12:54:38.093Z,17.83
2022-11-18T12:57:11.549Z,16.73
2022-11-18T12:59:40.034Z,16.87
2022-11-18T13:02:15.996Z,17.17
2022-11-18T13:04:48.547Z,14.53
2022-11-18T13:07:36.213Z,15.77
2022-11-18T13:10:03.143Z,15.93
2022-11-18T13:12:30.093Z,16.27
2022-11-18T13:15:15.473Z,14.80
2022-11-18T13:18:16.265Z,15.13
2022-11-18T13:20:43.531Z,14.87
2022-11-18T13:23:28.944Z,14.13
2022-11-18T13:25:57.640Z,14.73
2022-11-18T13:28:42.657Z,16.40
2022-11-18T13:31:17.998Z,15.87
2022-11-18T13:33:46.935Z,15.13
2022-11-18T13:36:23.576Z,16.40
2022-11-18T13:39:03.840Z,14.67
2022-11-18T13:41:38.061Z,13.87
2022-11-18T13:44:22.698Z,14.50
2022-11-18T13:46:50.837Z,15.53
2022-11-18T13:49:19.164Z,15.80
2022-11-18T13:51:46.465Z,16.80
2022-11-18T13:54:18.863Z,16.33
2022-11-18T13:56:47.395Z,15.43
2022-11-18T13:59:20.807Z,16.60
2022-11-18T14:01:47.564Z,17.60
2022-11-18T14:04:25.043Z,17.50
2022-11-18T14:06:51.743Z,17.43
2022-11-18T14:09:26.284Z,16.23
2022-11-18T14:12:05.572Z,16.23
2022-11-18T14:14:35.931Z,17.23
2022-11-18T14:17:21.518Z,18.70
2022-11-18T14:19:49.046Z,21.30
2022-11-18T14:22:19.628Z,18.60
2022-11-18T14:24:56.687Z,19.37
2022-11-18T14:27:34.225Z,18.23
2022-11-18T14:30:00.851Z,17.43
2022-11-18T14:32:28.519Z,16.90
2022-11-18T14:35:06.097Z,18.30
2022-11-18T14:37:46.750Z,15.77
2022-11-18T14:40:14.834Z,18.07
2022-11-18T14:42:51.851Z,19.20
2022-11-18T14:45:18.554Z,19.73
2022-11-18T14:50:29.622Z,15.27
2022-11-18T14:53:09.278Z,17.63
2022-11-18T15:06:53.519Z,16.13
2022-11-18T15:09:24.036Z,15.97
2022-11-18T15:14:29.155Z,14.33
2022-11-18T15:16:57.294Z,14.10
2022-11-18T15:19:44.706Z,14.93
2022-11-18T15:22:11.870Z,14.07
2022-11-18T15:24:42.422Z,13.73
2022-11-18T15:27:31.745Z,13.10
2022-11-18T15:32:44.287Z,11.63
2022-11-18T15:35:14.947Z,14.67
2022-11-18T15:37:51.946Z,13.10
2022-11-18T15:40:25.003Z,12.93
2022-11-18T15:42:52.380Z,12.63
2022-11-18T15:45:20.737Z,13.00
2022-11-18T15:47:48.806Z,11.87
2022-11-18T15:50:28.664Z,11.70
2022-11-18T15:52:55.994Z,12.43
2022-11-18T15:55:32.168Z,13.83
2022-11-18T15:57:58.930Z,11.63
2022-11-18T16:00:31.175Z,13.00
2022-11-18T16:03:00.376Z,13.27
2022-11-18T16:14:10.139Z,11.20
2022-11-18T16:16:36.981Z,12.70
2022-11-18T16:19:04.992Z,12.87
2022-11-18T16:21:48.883Z,11.70
2022-11-18T16:24:27.601Z,13.43
2022-11-18T16:26:56.495Z,12.63
2022-11-18T16:29:23.672Z,12.40
2022-11-18T16:31:52.463Z,13.27
2022-11-18T16:37:31.240Z,13.60
2022-11-18T16:40:28.638Z,14.53
2022-11-18T16:43:00.297Z,14.27
2022-11-18T16:45:33.691Z,13.57
2022-11-18T16:48:20.970Z,14.17
2022-11-18T16:51:27.466Z,14.50
2022-11-18T16:53:56.533Z,13.77
2022-11-18T16:56:23.979Z,14.10
2022-11-18T16:58:50.538Z,12.70
2022-11-18T17:01:20.043Z,13.90
2022-11-18T17:03:50.386Z,14.60
2022-11-18T17:06:17.200Z,13.93
2022-11-18T17:08:47.430Z,14.23
2022-11-18T17:11:14.239Z,14.00
2022-11-18T17:13:43.845Z,13.73
2022-11-18T17:16:14.251Z,17.13
2022-11-18T17:18:40.978Z,15.77
2022-11-18T17:21:14.672Z,16.33
2022-11-18T17:23:41.428Z,17.00
2022-11-18T17:26:08.180Z,16.40
2022-11-18T17:28:35.197Z,15.90
2022-11-18T17:31:08.398Z,16.50
2022-11-18T17:33:35.278Z,16.57
2022-11-18T17:36:05.871Z,15.33
2022-11-18T17:38:34.047Z,16.60
2022-11-18T17:41:00.892Z,16.93
2022-11-18T17:43:28.824Z,16.80
2022-11-18T17:45:55.926Z,15.23
2022-11-18T17:48:22.841Z,16.83
2022-11-18T17:50:49.499Z,16.37
2022-11-18T17:53:16.513Z,14.90
2022-11-18T17:55:43.227Z,16.37
2022-11-18T17:58:10.257Z,15.33
2022-11-18T18:00:37.172Z,16.07
2022-11-18T18:03:03.949Z,16.87
2022-11-18T18:05:30.692Z,16.60
2022-11-18T18:07:57.450Z,16.00
2022-11-18T18:10:24.134Z,16.33
2022-11-18T18:13:09.277Z,15.80
2022-11-18T18:15:35.782Z,15.07
2022-11-18T18:18:06.699Z,14.90
2022-11-18T18:20:34.038Z,14.97
2022-11-18T18:23:00.666Z,15.83
2022-11-18T18:25:27.485Z,13.63
2022-11-18T18:27:54.075Z,14.17
2022-11-18T18:30:20.607Z,15.10
2022-11-18T18:32:52.213Z,16.30
2022-11-18T18:35:21.811Z,15.93
2022-11-18T18:37:48.386Z,16.00
2022-11-18T18:40:15.030Z,14.23
2022-11-18T18:42:41.581Z,13.83
2022-11-18T18:45:28.299Z,13.70
2022-11-18T18:47:57.934Z,14.10
2022-11-18T18:50:29.796Z,13.00
2022-11-18T18:52:56.669Z,14.47
2022-11-18T18:55:23.233Z,15.70
2022-11-18T18:57:49.653Z,14.80
2022-11-18T19:00:16.421Z,13.17
2022-11-18T19:02:42.844Z,11.73
2022-11-18T19:05:09.485Z,12.27
2022-11-18T19:07:36.016Z,11.43
2022-11-18T19:10:05.493Z,12.20
2022-11-18T19:12:44.221Z,11.70
2022-11-18T19:15:11.031Z,10.30
2022-11-18T19:17:37.676Z,11.00
2022-11-18T19:20:22.896Z,9.47
2022-11-18T19:22:49.292Z,10.30
2022-11-18T19:25:15.772Z,10.70
2022-11-18T19:27:42.183Z,9.33
2022-11-18T19:30:09.331Z,10.73
2022-11-18T19:32:36.610Z,8.63
2022-11-18T19:35:03.421Z,8.67
2022-11-18T19:37:30.531Z,8.30
2022-11-18T19:39:58.905Z,9.37
2022-11-18T19:42:25.565Z,6.87
2022-11-18T19:44:52.003Z,9.47
2022-11-18T19:47:18.475Z,10.77
2022-11-18T19:49:45.093Z,9.50
2022-11-18T19:52:11.688Z,10.50
2022-11-18T19:54:39.395Z,8.83
2022-11-18T19:57:05.786Z,8.27
2022-11-18T19:59:32.252Z,10.60
2022-11-18T20:01:58.695Z,10.30
2022-11-18T20:04:25.208Z,10.67
2022-11-18T20:06:51.682Z,10.87
2022-11-18T20:09:18.605Z,9.60
2022-11-18T20:11:45.274Z,9.37
2022-11-18T20:14:12.051Z,10.37
2022-11-18T20:16:38.576Z,9.50
2022-11-18T20:19:10.574Z,9.33
2022-11-18T20:21:39.208Z,8.77
2022-11-18T20:24:06.306Z,9.50
2022-11-18T20:26:39.017Z,9.53
2022-11-18T20:29:06.096Z,9.23
2022-11-18T20:31:35.622Z,8.20
2022-11-18T20:34:02.083Z,8.03
2022-11-18T20:36:29.258Z,8.67
2022-11-18T20:38:56.526Z,7.47
2022-11-18T20:41:23.215Z,6.90
2022-11-18T20:43:49.789Z,8.37
2022-11-18T20:46:20.320Z,8.70
2022-11-18T20:48:47.701Z,7.10
2022-11-18T20:51:32.628Z,6.33
2022-11-18T20:54:00.559Z,6.37
2022-11-18T20:56:27.384Z,6.73
2022-11-18T20:58:53.848Z,6.20
2022-11-18T21:01:21.141Z,8.33
2022-11-18T21:03:48.327Z,8.03
2022-11-18T21:06:14.842Z,7.43
2022-11-18T21:08:41.462Z,7.80
2022-11-18T21:11:09.039Z,7.10
2022-11-18T21:13:54.180Z,8.37
2022-11-18T21:16:20.680Z,7.23
2022-11-18T21:18:47.245Z,7.20
2022-11-18T21:21:32.618Z,7.33
2022-11-18T21:23:59.605Z,7.57
2022-11-18T21:26:26.675Z,7.67
2022-11-18T21:28:56.886Z,6.43
2022-11-18T21:31:23.677Z,6.53
2022-11-18T21:33:50.490Z,7.40
2022-11-18T21:36:17.672Z,7.10
2022-11-18T21:38:44.107Z,8.07
2022-11-18T21:41:10.608Z,7.60
2022-11-18T21:44:03.934Z,8.27
2022-11-18T21:46:24.277Z,9.40
2022-11-18T21:48:52.543Z,11.33
2022-11-18T21:51:21.704Z,10.27
2022-11-18T21:53:48.191Z,11.47
2022-11-18T21:56:20.057Z,13.47
2022-11-18T21:58:47.186Z,11.37
2022-11-18T22:01:20.716Z,10.67
2022-11-18T22:03:55.329Z,10.43
2022-11-18T22:06:22.491Z,10.73
2022-11-18T22:08:48.927Z,9.93
2022-11-18T22:11:15.483Z,10.90
2022-11-18T22:13:42.087Z,11.67
2022-11-18T22:16:15.557Z,11.30
2022-11-18T22:18:42.697Z,11.53
2022-11-18T22:21:10.992Z,10.40
2022-11-18T22:23:37.447Z,11.70
2022-11-18T22:26:06.188Z,11.43
2022-11-18T22:28:32.677Z,11.80
2022-11-18T22:31:03.559Z,10.67
2022-11-18T22:33:30.649Z,11.30
2022-11-18T22:36:03.780Z,11.53
2022-11-18T22:38:30.281Z,11.93
2022-11-18T22:41:00.756Z,12.10
2022-11-18T22:43:27.372Z,12.63
2022-11-18T22:45:58.671Z,12.03
2022-11-18T22:48:25.117Z,12.70
2022-11-18T22:51:01.497Z,12.23
2022-11-18T22:53:28.257Z,12.50
2022-11-18T22:56:04.648Z,11.57
2022-11-18T22:58:31.145Z,11.67
2022-11-18T23:01:01.609Z,11.90
2022-11-18T23:03:28.308Z,12.57
2022-11-18T23:05:54.792Z,11.83
2022-11-18T23:08:21.418Z,12.50
2022-11-18T23:10:47.939Z,9.80
2022-11-18T23:13:33.168Z,10.40
2022-11-18T23:15:59.682Z,10.80
2022-11-18T23:18:26.307Z,11.00
2022-11-18T23:20:52.954Z,10.60
2022-11-18T23:23:19.364Z,9.47
2022-11-18T23:25:45.792Z,10.17
2022-11-18T23:28:12.207Z,10.30
2022-11-18T23:30:38.663Z,8.77
2022-11-18T23:33:05.178Z,9.43
2022-11-18T23:35:31.625Z,10.20
2022-11-18T23:37:58.029Z,10.10
2022-11-18T23:40:24.493Z,9.47
2022-11-18T23:42:50.946Z,10.30
2022-11-18T23:45:17.396Z,10.40
2022-11-18T23:47:43.855Z,8.70
2022-11-18T23:50:10.284Z,9.37
2022-11-18T23:52:41.518Z,9.67
2022-11-18T23:55:08.385Z,9.83
2022-11-18T23:57:34.826Z,10.23
